sensor_id;sensor_type;location;lat;lon;timestamp;pressure;altitude;pressure_sealevel;temperature;humidity
7918;BME280;4004;42.624;23.386;2023-03-14T00:01:26;94345.31;;;3.51;54.19
7918;BME280;4004;42.624;23.386;2023-03-14T00:03:53;94339.06;;;3.47;54.14
7918;BME280;4004;42.624;23.386;2023-03-14T00:06:20;94337.78;;;3.44;54.56
7918;BME280;4004;42.624;23.386;2023-03-14T00:08:47;94331.81;;;3.39;54.70
7918;BME280;4004;42.624;23.386;2023-03-14T00:11:15;94319.25;;;3.30;53.50
7918;BME280;4004;42.624;23.386;2023-03-14T00:13:47;94306.88;;;3.26;53.65
7918;BME280;4004;42.624;23.386;2023-03-14T00:16:14;94298.84;;;3.17;54.75
7918;BME280;4004;42.624;23.386;2023-03-14T00:18:41;94309.31;;;3.14;55.41
7918;BME280;4004;42.624;23.386;2023-03-14T00:21:09;94298.72;;;3.22;55.81
7918;BME280;4004;42.624;23.386;2023-03-14T00:23:37;94286.50;;;3.13;56.08
7918;BME280;4004;42.624;23.386;2023-03-14T00:26:07;94292.63;;;3.22;56.84
7918;BME280;4004;42.624;23.386;2023-03-14T00:28:34;94287.25;;;3.13;56.69
7918;BME280;4004;42.624;23.386;2023-03-14T00:31:04;94284.69;;;2.99;57.24
7918;BME280;4004;42.624;23.386;2023-03-14T00:33:31;94279.44;;;2.85;57.81
7918;BME280;4004;42.624;23.386;2023-03-14T00:36:00;94264.72;;;2.79;58.31
7918;BME280;4004;42.624;23.386;2023-03-14T00:38:27;94270.56;;;2.67;58.82
7918;BME280;4004;42.624;23.386;2023-03-14T00:40:54;94264.06;;;2.74;58.50
7918;BME280;4004;42.624;23.386;2023-03-14T00:43:21;94267.31;;;2.70;58.62
7918;BME280;4004;42.624;23.386;2023-03-14T00:45:48;94265.84;;;2.64;58.77
7918;BME280;4004;42.624;23.386;2023-03-14T00:48:16;94265.81;;;2.78;59.60
7918;BME280;4004;42.624;23.386;2023-03-14T00:50:43;94258.63;;;2.79;59.45
7918;BME280;4004;42.624;23.386;2023-03-14T00:53:11;94259.69;;;2.78;58.20
7918;BME280;4004;42.624;23.386;2023-03-14T00:55:38;94262.19;;;2.74;57.31
7918;BME280;4004;42.624;23.386;2023-03-14T00:58:05;94254.03;;;2.70;57.40
7918;BME280;4004;42.624;23.386;2023-03-14T01:00:32;94269.72;;;2.81;57.19
7918;BME280;4004;42.624;23.386;2023-03-14T01:03:00;94255.34;;;2.82;57.21
7918;BME280;4004;42.624;23.386;2023-03-14T01:05:28;94252.28;;;2.88;57.45
7918;BME280;4004;42.624;23.386;2023-03-14T01:07:55;94252.47;;;2.92;57.03
7918;BME280;4004;42.624;23.386;2023-03-14T01:10:22;94253.38;;;2.87;57.27
7918;BME280;4004;42.624;23.386;2023-03-14T01:12:49;94252.47;;;2.92;56.92
7918;BME280;4004;42.624;23.386;2023-03-14T01:15:16;94249.25;;;3.04;56.56
7918;BME280;4004;42.624;23.386;2023-03-14T01:17:43;94251.56;;;2.97;56.75
7918;BME280;4004;42.624;23.386;2023-03-14T01:20:11;94242.34;;;2.94;56.85
7918;BME280;4004;42.624;23.386;2023-03-14T01:22:41;94247.31;;;2.96;57.27
7918;BME280;4004;42.624;23.386;2023-03-14T01:25:10;94244.06;;;2.99;57.00
7918;BME280;4004;42.624;23.386;2023-03-14T01:27:37;94223.56;;;2.90;57.50
7918;BME280;4004;42.624;23.386;2023-03-14T01:30:05;94226.63;;;2.84;57.78
7918;BME280;4004;42.624;23.386;2023-03-14T01:32:33;94225.38;;;2.81;58.45
7918;BME280;4004;42.624;23.386;2023-03-14T01:35:00;94218.31;;;2.77;59.13
7918;BME280;4004;42.624;23.386;2023-03-14T01:37:27;94224.47;;;2.86;58.99
7918;BME280;4004;42.624;23.386;2023-03-14T01:39:55;94217.41;;;2.81;59.05
7918;BME280;4004;42.624;23.386;2023-03-14T01:42:21;94216.00;;;2.84;58.79
7918;BME280;4004;42.624;23.386;2023-03-14T01:44:50;94215.97;;;2.75;59.25
7918;BME280;4004;42.624;23.386;2023-03-14T01:47:17;94218.63;;;2.75;59.36
7918;BME280;4004;42.624;23.386;2023-03-14T01:49:45;94210.06;;;2.78;59.36
7918;BME280;4004;42.624;23.386;2023-03-14T01:52:15;94209.94;;;2.83;59.10
7918;BME280;4004;42.624;23.386;2023-03-14T01:54:44;94208.34;;;2.82;58.70
7918;BME280;4004;42.624;23.386;2023-03-14T01:57:17;94208.66;;;2.81;58.32
7918;BME280;4004;42.624;23.386;2023-03-14T01:59:48;94202.88;;;2.79;57.92
7918;BME280;4004;42.624;23.386;2023-03-14T02:02:16;94207.88;;;2.80;58.09
7918;BME280;4004;42.624;23.386;2023-03-14T02:04:43;94209.09;;;2.74;58.50
7918;BME280;4004;42.624;23.386;2023-03-14T02:07:13;94208.75;;;2.67;58.35
7918;BME280;4004;42.624;23.386;2023-03-14T02:09:42;94208.75;;;2.67;58.71
7918;BME280;4004;42.624;23.386;2023-03-14T02:12:09;94206.09;;;2.67;59.56
7918;BME280;4004;42.624;23.386;2023-03-14T02:14:39;94207.00;;;2.62;59.78
7918;BME280;4004;42.624;23.386;2023-03-14T02:17:07;94207.03;;;2.48;60.34
7918;BME280;4004;42.624;23.386;2023-03-14T02:19:44;94201.00;;;2.57;60.92
7918;BME280;4004;42.624;23.386;2023-03-14T02:22:15;94192.22;;;2.47;61.27
7918;BME280;4004;42.624;23.386;2023-03-14T02:24:46;94196.75;;;2.47;61.52
7918;BME280;4004;42.624;23.386;2023-03-14T02:27:17;94195.91;;;2.60;61.29
7918;BME280;4004;42.624;23.386;2023-03-14T02:29:49;94189.72;;;2.51;61.42
7918;BME280;4004;42.624;23.386;2023-03-14T02:32:19;94200.41;;;2.37;60.49
7918;BME280;4004;42.624;23.386;2023-03-14T02:34:49;94200.72;;;2.36;60.06
7918;BME280;4004;42.624;23.386;2023-03-14T02:37:19;94194.81;;;2.39;59.69
7918;BME280;4004;42.624;23.386;2023-03-14T02:39:47;94194.03;;;2.38;58.66
7918;BME280;4004;42.624;23.386;2023-03-14T02:42:16;94190.28;;;2.39;58.46
7918;BME280;4004;42.624;23.386;2023-03-14T02:44:52;94194.03;;;2.38;58.59
7918;BME280;4004;42.624;23.386;2023-03-14T02:47:22;94193.19;;;2.29;58.75
7918;BME280;4004;42.624;23.386;2023-03-14T02:49:53;94197.81;;;2.23;59.33
7918;BME280;4004;42.624;23.386;2023-03-14T02:52:22;94196.53;;;2.21;59.03
7918;BME280;4004;42.624;23.386;2023-03-14T02:54:49;94205.47;;;2.25;59.30
7918;BME280;4004;42.624;23.386;2023-03-14T02:57:17;94202.00;;;2.24;59.44
7918;BME280;4004;42.624;23.386;2023-03-14T02:59:43;94202.50;;;2.26;59.70
7918;BME280;4004;42.624;23.386;2023-03-14T03:02:10;94213.91;;;2.27;59.52
7918;BME280;4004;42.624;23.386;2023-03-14T03:04:37;94208.00;;;2.30;59.41
7918;BME280;4004;42.624;23.386;2023-03-14T03:07:03;94213.31;;;2.30;59.40
7918;BME280;4004;42.624;23.386;2023-03-14T03:09:30;94213.13;;;2.26;59.54
7918;BME280;4004;42.624;23.386;2023-03-14T03:11:57;94209.09;;;2.29;60.44
7918;BME280;4004;42.624;23.386;2023-03-14T03:14:25;94211.91;;;2.33;61.12
7918;BME280;4004;42.624;23.386;2023-03-14T03:16:52;94200.53;;;2.32;61.76
7918;BME280;4004;42.624;23.386;2023-03-14T03:19:18;94210.94;;;2.28;62.70
7918;BME280;4004;42.624;23.386;2023-03-14T03:21:46;94202.41;;;2.32;63.03
7918;BME280;4004;42.624;23.386;2023-03-14T03:24:13;94208.63;;;2.27;63.19
7918;BME280;4004;42.624;23.386;2023-03-14T03:26:40;94202.69;;;2.30;62.91
7918;BME280;4004;42.624;23.386;2023-03-14T03:29:07;94210.16;;;2.28;62.89
7918;BME280;4004;42.624;23.386;2023-03-14T03:31:36;94203.88;;;2.24;63.13
7918;BME280;4004;42.624;23.386;2023-03-14T03:34:03;94207.81;;;2.26;63.94
7918;BME280;4004;42.624;23.386;2023-03-14T03:36:30;94197.59;;;2.20;63.59
7918;BME280;4004;42.624;23.386;2023-03-14T03:38:57;94200.19;;;2.11;64.05
7918;BME280;4004;42.624;23.386;2023-03-14T03:41:24;94207.44;;;2.19;63.43
7918;BME280;4004;42.624;23.386;2023-03-14T03:43:51;94206.06;;;2.22;63.06
7918;BME280;4004;42.624;23.386;2023-03-14T03:46:19;94197.59;;;2.20;62.52
7918;BME280;4004;42.624;23.386;2023-03-14T03:48:47;94202.50;;;2.26;62.85
7918;BME280;4004;42.624;23.386;2023-03-14T03:51:15;94210.78;;;2.25;62.93
7918;BME280;4004;42.624;23.386;2023-03-14T03:53:42;94206.66;;;2.19;62.98
7918;BME280;4004;42.624;23.386;2023-03-14T03:56:09;94220.81;;;2.14;63.60
7918;BME280;4004;42.624;23.386;2023-03-14T03:58:36;94217.06;;;2.15;64.21
7918;BME280;4004;42.624;23.386;2023-03-14T04:01:04;94221.59;;;2.15;64.25
7918;BME280;4004;42.624;23.386;2023-03-14T04:03:31;94218.47;;;2.13;64.72
7918;BME280;4004;42.624;23.386;2023-03-14T04:06:01;94219.72;;;2.15;65.51
7918;BME280;4004;42.624;23.386;2023-03-14T04:08:28;94217.28;;;2.19;65.49
7918;BME280;4004;42.624;23.386;2023-03-14T04:10:56;94218.19;;;2.14;66.11
7918;BME280;4004;42.624;23.386;2023-03-14T04:13:23;94222.78;;;2.08;66.16
7918;BME280;4004;42.624;23.386;2023-03-14T04:15:50;94222.78;;;2.08;66.60
7918;BME280;4004;42.624;23.386;2023-03-14T04:18:17;94219.66;;;2.06;66.70
7918;BME280;4004;42.624;23.386;2023-03-14T04:20:44;94208.94;;;2.12;66.85
7918;BME280;4004;42.624;23.386;2023-03-14T04:23:12;94199.41;;;2.11;66.42
7918;BME280;4004;42.624;23.386;2023-03-14T04:25:38;94194.03;;;2.02;65.71
7918;BME280;4004;42.624;23.386;2023-03-14T04:28:05;94188.25;;;2.00;65.78
7918;BME280;4004;42.624;23.386;2023-03-14T04:30:32;94186.31;;;1.92;66.28
7918;BME280;4004;42.624;23.386;2023-03-14T04:32:58;94182.09;;;1.91;66.46
7918;BME280;4004;42.624;23.386;2023-03-14T04:35:25;94185.91;;;1.98;65.89
7918;BME280;4004;42.624;23.386;2023-03-14T04:37:52;94178.25;;;1.97;65.77
7918;BME280;4004;42.624;23.386;2023-03-14T04:40:20;94173.84;;;1.92;65.76
7918;BME280;4004;42.624;23.386;2023-03-14T04:42:47;94176.78;;;1.91;66.01
7918;BME280;4004;42.624;23.386;2023-03-14T04:45:13;94170.91;;;1.94;66.91
7918;BME280;4004;42.624;23.386;2023-03-14T04:47:40;94174.31;;;1.94;66.78
7918;BME280;4004;42.624;23.386;2023-03-14T04:50:08;94168.06;;;1.90;66.47
7918;BME280;4004;42.624;23.386;2023-03-14T04:52:35;94173.03;;;2.05;66.48
7918;BME280;4004;42.624;23.386;2023-03-14T04:55:02;94162.22;;;2.24;65.71
7918;BME280;4004;42.624;23.386;2023-03-14T04:57:30;94164.53;;;2.40;65.52
7918;BME280;4004;42.624;23.386;2023-03-14T04:59:57;94160.59;;;2.60;65.27
7918;BME280;4004;42.624;23.386;2023-03-14T05:02:24;94156.22;;;2.86;64.07
7918;BME280;4004;42.624;23.386;2023-03-14T05:04:50;94152.19;;;2.98;62.67
7918;BME280;4004;42.624;23.386;2023-03-14T05:07:17;94153.53;;;2.86;62.68
7918;BME280;4004;42.624;23.386;2023-03-14T05:09:44;94155.25;;;2.82;62.49
7918;BME280;4004;42.624;23.386;2023-03-14T05:12:10;94159.78;;;2.82;62.72
7918;BME280;4004;42.624;23.386;2023-03-14T05:14:38;94154.81;;;2.89;63.02
7918;BME280;4004;42.624;23.386;2023-03-14T05:17:05;94164.59;;;3.11;63.46
7918;BME280;4004;42.624;23.386;2023-03-14T05:19:32;94157.47;;;3.29;62.33
7918;BME280;4004;42.624;23.386;2023-03-14T05:21:59;94156.47;;;3.56;61.49
7918;BME280;4004;42.624;23.386;2023-03-14T05:24:25;94154.63;;;3.83;61.37
7918;BME280;4004;42.624;23.386;2023-03-14T05:26:53;94154.63;;;4.18;59.04
7918;BME280;4004;42.624;23.386;2023-03-14T05:29:19;94165.28;;;4.52;57.96
7918;BME280;4004;42.624;23.386;2023-03-14T05:31:47;94162.22;;;4.89;56.78
7918;BME280;4004;42.624;23.386;2023-03-14T05:34:14;94159.75;;;5.22;55.73
7918;BME280;4004;42.624;23.386;2023-03-14T05:36:41;94148.22;;;5.48;55.08
7918;BME280;4004;42.624;23.386;2023-03-14T05:39:08;94158.41;;;5.46;54.54
7918;BME280;4004;42.624;23.386;2023-03-14T05:41:34;94156.13;;;5.65;54.44
7918;BME280;4004;42.624;23.386;2023-03-14T05:44:01;94157.13;;;5.52;54.09
7918;BME280;4004;42.624;23.386;2023-03-14T05:46:28;94151.38;;;5.03;56.31
7918;BME280;4004;42.624;23.386;2023-03-14T05:48:57;94153.22;;;5.11;56.37
7918;BME280;4004;42.624;23.386;2023-03-14T05:51:24;94157.00;;;5.48;55.61
7918;BME280;4004;42.624;23.386;2023-03-14T05:53:51;94154.81;;;5.71;54.29
7918;BME280;4004;42.624;23.386;2023-03-14T05:56:18;94159.72;;;5.69;54.41
7918;BME280;4004;42.624;23.386;2023-03-14T05:58:45;94162.69;;;5.68;54.01
7918;BME280;4004;42.624;23.386;2023-03-14T06:01:11;94163.63;;;5.72;53.76
7918;BME280;4004;42.624;23.386;2023-03-14T06:03:38;94157.75;;;6.08;52.99
7918;BME280;4004;42.624;23.386;2023-03-14T06:06:07;94155.63;;;6.22;51.94
7918;BME280;4004;42.624;23.386;2023-03-14T06:08:33;94152.63;;;6.03;51.76
7918;BME280;4004;42.624;23.386;2023-03-14T06:11:03;94157.97;;;6.03;52.81
7918;BME280;4004;42.624;23.386;2023-03-14T06:13:30;94159.84;;;6.23;52.16
7918;BME280;4004;42.624;23.386;2023-03-14T06:15:56;94161.59;;;6.40;52.61
7918;BME280;4004;42.624;23.386;2023-03-14T06:18:23;94155.97;;;6.54;51.35
7918;BME280;4004;42.624;23.386;2023-03-14T06:20:53;94150.72;;;6.79;50.73
7918;BME280;4004;42.624;23.386;2023-03-14T06:23:22;94153.63;;;6.86;50.31
7918;BME280;4004;42.624;23.386;2023-03-14T06:25:49;94158.75;;;6.58;50.38
7918;BME280;4004;42.624;23.386;2023-03-14T06:28:15;94164.97;;;6.29;50.49
7918;BME280;4004;42.624;23.386;2023-03-14T06:30:42;94148.56;;;6.18;52.00
7918;BME280;4004;42.624;23.386;2023-03-14T06:33:09;94162.16;;;6.46;51.46
7918;BME280;4004;42.624;23.386;2023-03-14T06:35:36;94156.28;;;6.74;50.70
7918;BME280;4004;42.624;23.386;2023-03-14T06:38:03;94155.28;;;6.91;50.55
7918;BME280;4004;42.624;23.386;2023-03-14T06:40:31;94162.50;;;7.23;49.11
7918;BME280;4004;42.624;23.386;2023-03-14T06:42:57;94159.50;;;7.62;49.11
7918;BME280;4004;42.624;23.386;2023-03-14T06:45:24;94156.69;;;7.95;46.82
7918;BME280;4004;42.624;23.386;2023-03-14T06:47:51;94151.34;;;8.36;46.14
7918;BME280;4004;42.624;23.386;2023-03-14T06:50:18;94149.63;;;8.84;45.56
7918;BME280;4004;42.624;23.386;2023-03-14T06:52:44;94141.00;;;8.62;45.60
7918;BME280;4004;42.624;23.386;2023-03-14T06:55:13;94135.94;;;8.73;44.86
7918;BME280;4004;42.624;23.386;2023-03-14T06:57:41;94134.28;;;8.68;44.22
7918;BME280;4004;42.624;23.386;2023-03-14T07:00:10;94134.41;;;8.88;43.37
7918;BME280;4004;42.624;23.386;2023-03-14T07:02:37;94132.81;;;9.15;42.81
7918;BME280;4004;42.624;23.386;2023-03-14T07:05:05;94138.78;;;9.08;43.29
7918;BME280;4004;42.624;23.386;2023-03-14T07:07:32;94135.56;;;9.50;43.00
7918;BME280;4004;42.624;23.386;2023-03-14T07:09:59;94126.94;;;9.25;43.01
7918;BME280;4004;42.624;23.386;2023-03-14T07:12:25;94118.88;;;9.25;42.96
7918;BME280;4004;42.624;23.386;2023-03-14T07:14:53;94115.25;;;9.18;43.13
7918;BME280;4004;42.624;23.386;2023-03-14T07:17:20;94104.81;;;8.84;43.10
7918;BME280;4004;42.624;23.386;2023-03-14T07:19:47;94117.84;;;8.98;43.75
7918;BME280;4004;42.624;23.386;2023-03-14T07:22:13;94106.31;;;8.98;43.40
7918;BME280;4004;42.624;23.386;2023-03-14T07:24:40;94109.63;;;9.23;42.96
7918;BME280;4004;42.624;23.386;2023-03-14T07:27:07;94093.09;;;9.21;42.84
7918;BME280;4004;42.624;23.386;2023-03-14T07:29:33;94115.41;;;9.25;42.37
7918;BME280;4004;42.624;23.386;2023-03-14T07:32:02;94112.97;;;9.51;42.34
7918;BME280;4004;42.624;23.386;2023-03-14T07:34:28;94118.09;;;9.57;42.41
7918;BME280;4004;42.624;23.386;2023-03-14T07:36:55;94101.00;;;9.81;41.96
7918;BME280;4004;42.624;23.386;2023-03-14T07:39:22;94102.53;;;10.17;41.36
7918;BME280;4004;42.624;23.386;2023-03-14T07:41:48;94104.97;;;10.06;41.13
7918;BME280;4004;42.624;23.386;2023-03-14T07:44:15;94100.41;;;10.26;40.91
7918;BME280;4004;42.624;23.386;2023-03-14T07:46:42;94095.53;;;10.71;40.32
7918;BME280;4004;42.624;23.386;2023-03-14T07:49:10;94090.66;;;10.76;40.06
7918;BME280;4004;42.624;23.386;2023-03-14T07:51:37;94091.66;;;10.68;39.98
7918;BME280;4004;42.624;23.386;2023-03-14T07:54:03;94085.97;;;10.73;39.89
7918;BME280;4004;42.624;23.386;2023-03-14T07:56:30;94086.28;;;10.91;39.66
7918;BME280;4004;42.624;23.386;2023-03-14T07:58:57;94082.00;;;11.33;39.14
7918;BME280;4004;42.624;23.386;2023-03-14T08:01:24;94082.22;;;11.47;38.77
7918;BME280;4004;42.624;23.386;2023-03-14T08:03:50;94091.69;;;11.64;38.04
7918;BME280;4004;42.624;23.386;2023-03-14T08:06:19;94092.19;;;11.70;38.15
7918;BME280;4004;42.624;23.386;2023-03-14T08:08:45;94087.06;;;11.88;37.94
7918;BME280;4004;42.624;23.386;2023-03-14T08:11:12;94097.81;;;11.61;37.84
7918;BME280;4004;42.624;23.386;2023-03-14T08:13:39;94081.91;;;11.52;38.15
7918;BME280;4004;42.624;23.386;2023-03-14T08:16:06;94081.25;;;11.36;38.80
7918;BME280;4004;42.624;23.386;2023-03-14T08:18:33;94083.13;;;11.09;39.08
7918;BME280;4004;42.624;23.386;2023-03-14T08:21:00;94086.66;;;10.90;39.76
7918;BME280;4004;42.624;23.386;2023-03-14T08:23:28;94085.00;;;11.28;39.19
7918;BME280;4004;42.624;23.386;2023-03-14T08:25:55;94091.97;;;11.09;39.64
7918;BME280;4004;42.624;23.386;2023-03-14T08:28:22;94088.28;;;10.94;39.81
7918;BME280;4004;42.624;23.386;2023-03-14T08:30:48;94080.66;;;11.00;39.45
7918;BME280;4004;42.624;23.386;2023-03-14T08:33:15;94077.53;;;10.94;39.32
7918;BME280;4004;42.624;23.386;2023-03-14T08:35:42;94078.88;;;10.85;39.39
7918;BME280;4004;42.624;23.386;2023-03-14T08:38:08;94078.63;;;10.70;40.08
7918;BME280;4004;42.624;23.386;2023-03-14T08:40:37;94081.25;;;10.67;39.54
7918;BME280;4004;42.624;23.386;2023-03-14T08:43:03;94064.75;;;10.91;39.43
7918;BME280;4004;42.624;23.386;2023-03-14T08:45:30;94068.84;;;10.82;40.13
7918;BME280;4004;42.624;23.386;2023-03-14T08:47:57;94060.88;;;10.89;40.30
7918;BME280;4004;42.624;23.386;2023-03-14T08:50:24;94059.03;;;10.93;39.68
7918;BME280;4004;42.624;23.386;2023-03-14T08:52:51;94049.69;;;10.87;39.68
7918;BME280;4004;42.624;23.386;2023-03-14T08:55:18;94053.59;;;10.89;39.73
7918;BME280;4004;42.624;23.386;2023-03-14T08:57:46;94046.34;;;10.70;39.70
7918;BME280;4004;42.624;23.386;2023-03-14T09:00:14;94042.94;;;10.31;40.31
7918;BME280;4004;42.624;23.386;2023-03-14T09:02:42;94029.16;;;10.32;39.89
7918;BME280;4004;42.624;23.386;2023-03-14T09:05:09;94045.72;;;10.34;39.84
7918;BME280;4004;42.624;23.386;2023-03-14T09:07:36;94031.84;;;10.32;39.88
7918;BME280;4004;42.624;23.386;2023-03-14T09:10:04;94031.41;;;10.50;39.41
7918;BME280;4004;42.624;23.386;2023-03-14T09:12:31;94023.63;;;10.87;38.74
7918;BME280;4004;42.624;23.386;2023-03-14T09:14:59;94018.47;;;10.78;38.81
7918;BME280;4004;42.624;23.386;2023-03-14T09:17:26;94011.03;;;10.95;38.28
7918;BME280;4004;42.624;23.386;2023-03-14T09:19:53;94002.56;;;10.70;38.81
7918;BME280;4004;42.624;23.386;2023-03-14T09:22:19;93998.91;;;10.82;38.41
7918;BME280;4004;42.624;23.386;2023-03-14T09:24:46;94001.91;;;10.76;38.69
7918;BME280;4004;42.624;23.386;2023-03-14T09:27:13;93995.06;;;10.83;37.99
7918;BME280;4004;42.624;23.386;2023-03-14T09:29:40;93981.09;;;10.73;38.56
7918;BME280;4004;42.624;23.386;2023-03-14T09:32:08;93978.19;;;10.59;38.69
7918;BME280;4004;42.624;23.386;2023-03-14T09:34:35;93981.59;;;10.79;38.78
7918;BME280;4004;42.624;23.386;2023-03-14T09:37:01;93974.28;;;10.79;38.14
7918;BME280;4004;42.624;23.386;2023-03-14T09:39:28;93971.00;;;10.67;38.48
7918;BME280;4004;42.624;23.386;2023-03-14T09:41:57;93947.06;;;10.58;38.25
7918;BME280;4004;42.624;23.386;2023-03-14T09:44:29;93964.91;;;10.93;38.20
7918;BME280;4004;42.624;23.386;2023-03-14T09:47:00;93959.22;;;10.98;38.01
7918;BME280;4004;42.624;23.386;2023-03-14T09:49:32;93949.56;;;10.70;38.57
7918;BME280;4004;42.624;23.386;2023-03-14T09:52:02;93950.47;;;10.55;39.78
7918;BME280;4004;42.624;23.386;2023-03-14T09:54:35;93943.06;;;10.48;40.39
7918;BME280;4004;42.624;23.386;2023-03-14T09:57:03;93941.66;;;10.58;39.86
7918;BME280;4004;42.624;23.386;2023-03-14T09:59:30;93923.22;;;10.56;40.48
7918;BME280;4004;42.624;23.386;2023-03-14T10:02:00;93925.25;;;10.63;40.36
7918;BME280;4004;42.624;23.386;2023-03-14T10:04:29;93925.38;;;10.70;40.61
7918;BME280;4004;42.624;23.386;2023-03-14T10:06:58;93926.50;;;10.69;41.62
7918;BME280;4004;42.624;23.386;2023-03-14T10:09:24;93910.50;;;10.76;41.58
7918;BME280;4004;42.624;23.386;2023-03-14T10:11:54;93907.41;;;10.78;40.93
7918;BME280;4004;42.624;23.386;2023-03-14T10:14:32;93909.75;;;10.79;41.22
7918;BME280;4004;42.624;23.386;2023-03-14T10:17:10;93909.41;;;10.81;40.68
7918;BME280;4004;42.624;23.386;2023-03-14T10:19:51;93902.16;;;10.85;41.97
7918;BME280;4004;42.624;23.386;2023-03-14T10:22:18;93899.06;;;10.83;41.80
7918;BME280;4004;42.624;23.386;2023-03-14T10:24:46;93888.06;;;10.92;41.38
7918;BME280;4004;42.624;23.386;2023-03-14T10:27:19;93878.56;;;11.02;41.00
7918;BME280;4004;42.624;23.386;2023-03-14T10:29:52;93871.91;;;11.22;40.70
7918;BME280;4004;42.624;23.386;2023-03-14T10:32:20;93877.72;;;11.24;41.66
7918;BME280;4004;42.624;23.386;2023-03-14T10:35:06;93855.84;;;11.26;40.99
7918;BME280;4004;42.624;23.386;2023-03-14T10:37:34;93853.34;;;11.13;40.97
7918;BME280;4004;42.624;23.386;2023-03-14T10:40:02;93846.53;;;11.19;41.39
7918;BME280;4004;42.624;23.386;2023-03-14T10:42:31;93845.50;;;11.31;40.98
7918;BME280;4004;42.624;23.386;2023-03-14T10:45:02;93839.03;;;11.36;40.80
7918;BME280;4004;42.624;23.386;2023-03-14T10:47:32;93831.00;;;11.39;41.37
7918;BME280;4004;42.624;23.386;2023-03-14T10:50:25;93831.63;;;11.59;41.41
7918;BME280;4004;42.624;23.386;2023-03-14T10:52:53;93822.25;;;11.83;39.62
7918;BME280;4004;42.624;23.386;2023-03-14T10:55:21;93814.25;;;11.91;40.22
7918;BME280;4004;42.624;23.386;2023-03-14T10:57:49;93805.91;;;12.03;40.17
7918;BME280;4004;42.624;23.386;2023-03-14T11:00:18;93787.47;;;12.09;39.58
7918;BME280;4004;42.624;23.386;2023-03-14T11:02:58;93789.91;;;12.21;39.59
7918;BME280;4004;42.624;23.386;2023-03-14T11:05:36;93783.34;;;12.22;39.26
7918;BME280;4004;42.624;23.386;2023-03-14T11:08:09;93782.88;;;12.13;38.89
7918;BME280;4004;42.624;23.386;2023-03-14T11:10:39;93771.00;;;12.17;38.82
7918;BME280;4004;42.624;23.386;2023-03-14T11:13:15;93771.50;;;12.34;38.58
7918;BME280;4004;42.624;23.386;2023-03-14T11:15:50;93763.13;;;12.46;38.77
7918;BME280;4004;42.624;23.386;2023-03-14T11:18:38;93753.50;;;12.49;38.95
7918;BME280;4004;42.624;23.386;2023-03-14T11:21:14;93741.22;;;12.55;38.17
7918;BME280;4004;42.624;23.386;2023-03-14T11:23:49;93740.88;;;12.67;37.66
7918;BME280;4004;42.624;23.386;2023-03-14T11:26:26;93735.16;;;12.76;37.93
7918;BME280;4004;42.624;23.386;2023-03-14T11:28:57;93721.00;;;12.97;37.73
7918;BME280;4004;42.624;23.386;2023-03-14T11:31:26;93696.28;;;12.88;37.19
7918;BME280;4004;42.624;23.386;2023-03-14T11:33:56;93709.09;;;13.09;36.70
7918;BME280;4004;42.624;23.386;2023-03-14T11:36:31;93701.72;;;13.02;37.06
7918;BME280;4004;42.624;23.386;2023-03-14T11:38:59;93688.25;;;13.02;37.03
7918;BME280;4004;42.624;23.386;2023-03-14T11:41:30;93673.19;;;12.97;37.81
7918;BME280;4004;42.624;23.386;2023-03-14T11:44:00;93686.38;;;13.24;37.02
7918;BME280;4004;42.624;23.386;2023-03-14T11:46:32;93681.78;;;13.32;37.23
7918;BME280;4004;42.624;23.386;2023-03-14T11:49:05;93685.28;;;13.39;36.47
7918;BME280;4004;42.624;23.386;2023-03-14T11:51:36;93686.03;;;13.33;36.12
7918;BME280;4004;42.624;23.386;2023-03-14T11:54:14;93672.94;;;13.42;35.72
7918;BME280;4004;42.624;23.386;2023-03-14T11:56:46;93665.63;;;13.46;35.81
7918;BME280;4004;42.624;23.386;2023-03-14T11:59:17;93663.31;;;13.55;35.40
7918;BME280;4004;42.624;23.386;2023-03-14T12:01:54;93652.53;;;13.59;35.80
7918;BME280;4004;42.624;23.386;2023-03-14T12:04:41;93650.97;;;13.76;35.87
7918;BME280;4004;42.624;23.386;2023-03-14T12:07:18;93645.53;;;13.94;35.84
7918;BME280;4004;42.624;23.386;2023-03-14T12:09:46;93642.84;;;14.08;35.34
7918;BME280;4004;42.624;23.386;2023-03-14T12:12:17;93632.38;;;14.24;35.03
7918;BME280;4004;42.624;23.386;2023-03-14T12:14:46;93638.97;;;14.16;34.15
7918;BME280;4004;42.624;23.386;2023-03-14T12:17:20;93623.91;;;14.19;34.21
7918;BME280;4004;42.624;23.386;2023-03-14T12:19:48;93615.78;;;14.15;34.38
7918;BME280;4004;42.624;23.386;2023-03-14T12:22:29;93619.22;;;14.26;34.04
7918;BME280;4004;42.624;23.386;2023-03-14T12:25:00;93601.47;;;14.22;34.11
7918;BME280;4004;42.624;23.386;2023-03-14T12:30:33;93602.97;;;14.34;33.96
7918;BME280;4004;42.624;23.386;2023-03-14T12:33:27;93593.38;;;14.22;33.73
7918;BME280;4004;42.624;23.386;2023-03-14T12:36:02;93590.31;;;14.16;34.12
7918;BME280;4004;42.624;23.386;2023-03-14T12:38:39;93591.84;;;14.17;33.47
7918;BME280;4004;42.624;23.386;2023-03-14T12:41:14;93581.00;;;14.24;33.47
7918;BME280;4004;42.624;23.386;2023-03-14T12:43:41;93577.88;;;14.33;33.43
7918;BME280;4004;42.624;23.386;2023-03-14T12:46:20;93575.50;;;14.49;33.36
7918;BME280;4004;42.624;23.386;2023-03-14T12:48:49;93582.84;;;14.52;33.38
7918;BME280;4004;42.624;23.386;2023-03-14T12:51:18;93570.03;;;14.71;33.56
7918;BME280;4004;42.624;23.386;2023-03-14T12:53:59;93570.41;;;14.73;32.43
7918;BME280;4004;42.624;23.386;2023-03-14T12:56:42;93563.47;;;14.72;32.30
7918;BME280;4004;42.624;23.386;2023-03-14T12:59:30;93564.28;;;14.62;32.41
7918;BME280;4004;42.624;23.386;2023-03-14T13:02:01;93551.16;;;14.57;32.31
7918;BME280;4004;42.624;23.386;2023-03-14T13:04:32;93541.81;;;14.65;32.89
7918;BME280;4004;42.624;23.386;2023-03-14T13:07:00;93545.34;;;14.62;32.70
7918;BME280;4004;42.624;23.386;2023-03-14T13:10:03;93543.78;;;14.64;32.39
7918;BME280;4004;42.624;23.386;2023-03-14T13:12:38;93540.63;;;14.73;32.27
7918;BME280;4004;42.624;23.386;2023-03-14T13:15:19;93536.41;;;14.72;31.95
7918;BME280;4004;42.624;23.386;2023-03-14T13:17:47;93516.28;;;14.69;32.17
7918;BME280;4004;42.624;23.386;2023-03-14T13:20:19;93524.72;;;14.86;31.74
7918;BME280;4004;42.624;23.386;2023-03-14T13:22:48;93523.59;;;14.76;31.87
7918;BME280;4004;42.624;23.386;2023-03-14T13:25:17;93502.41;;;14.67;32.03
7918;BME280;4004;42.624;23.386;2023-03-14T13:27:46;93517.75;;;14.85;31.69
7918;BME280;4004;42.624;23.386;2023-03-14T13:30:21;93497.59;;;14.93;31.83